sensor_id;sensor_type;location;lat;lon;timestamp;P1;durP1;ratioP1;P2;durP2;ratioP2
39930;SDS011;26635;-35.248;149.138;2022-08-04T00:00:57;1.77;;;0.40;;
39930;SDS011;26635;-35.248;149.138;2022-08-04T00:03:49;1.25;;;0.43;;
39930;SDS011;26635;-35.248;149.138;2022-08-04T00:09:06;2.28;;;0.57;;
39930;SDS011;26635;-35.248;149.138;2022-08-04T00:11:44;2.47;;;0.40;;
39930;SDS011;26635;-35.248;149.138;2022-08-04T00:14:17;0.95;;;0.55;;
39930;SDS011;26635;-35.248;149.138;2022-08-04T00:16:49;0.90;;;0.60;;
39930;SDS011;26635;-35.248;149.138;2022-08-04T00:19:25;1.85;;;0.68;;
39930;SDS011;26635;-35.248;149.138;2022-08-04T00:22:04;2.65;;;0.55;;
39930;SDS011;26635;-35.248;149.138;2022-08-04T00:24:40;2.58;;;0.93;;
39930;SDS011;26635;-35.248;149.138;2022-08-04T00:27:12;1.38;;;0.70;;
39930;SDS011;26635;-35.248;149.138;2022-08-04T00:32:19;4.03;;;1.58;;
39930;SDS011;26635;-35.248;149.138;2022-08-04T00:35:03;1.90;;;1.13;;
39930;SDS011;26635;-35.248;149.138;2022-08-04T00:37:36;1.52;;;1.02;;
39930;SDS011;26635;-35.248;149.138;2022-08-04T00:40:13;1.60;;;0.90;;
39930;SDS011;26635;-35.248;149.138;2022-08-04T00:43:36;2.90;;;0.98;;
39930;SDS011;26635;-35.248;149.138;2022-08-04T01:01:01;1.38;;;0.80;;
39930;SDS011;26635;-35.248;149.138;2022-08-04T01:15:24;1.10;;;0.60;;
39930;SDS011;26635;-35.248;149.138;2022-08-04T01:18:32;3.05;;;1.15;;
39930;SDS011;26635;-35.248;149.138;2022-08-04T01:30:36;1.55;;;0.90;;
39930;SDS011;26635;-35.248;149.138;2022-08-04T01:33:16;1.65;;;0.50;;
39930;SDS011;26635;-35.248;149.138;2022-08-04T01:35:55;3.15;;;0.77;;
39930;SDS011;26635;-35.248;149.138;2022-08-04T01:38:35;1.63;;;0.75;;
39930;SDS011;26635;-35.248;149.138;2022-08-04T01:41:13;1.35;;;0.50;;
39930;SDS011;26635;-35.248;149.138;2022-08-04T01:43:58;1.13;;;0.60;;
39930;SDS011;26635;-35.248;149.138;2022-08-04T01:46:31;3.55;;;1.50;;
39930;SDS011;26635;-35.248;149.138;2022-08-04T01:49:03;2.67;;;0.95;;
39930;SDS011;26635;-35.248;149.138;2022-08-04T01:51:52;1.23;;;0.60;;
39930;SDS011;26635;-35.248;149.138;2022-08-04T01:54:27;1.45;;;0.52;;
39930;SDS011;26635;-35.248;149.138;2022-08-04T01:57:00;1.60;;;0.80;;
39930;SDS011;26635;-35.248;149.138;2022-08-04T01:59:55;0.93;;;0.65;;
39930;SDS011;26635;-35.248;149.138;2022-08-04T02:02:28;2.08;;;0.80;;
39930;SDS011;26635;-35.248;149.138;2022-08-04T02:05:25;0.98;;;0.50;;
39930;SDS011;26635;-35.248;149.138;2022-08-04T02:08:30;1.17;;;0.45;;
39930;SDS011;26635;-35.248;149.138;2022-08-04T02:11:30;1.48;;;0.75;;
39930;SDS011;26635;-35.248;149.138;2022-08-04T02:14:04;1.15;;;0.52;;
39930;SDS011;26635;-35.248;149.138;2022-08-04T02:16:48;0.77;;;0.55;;
39930;SDS011;26635;-35.248;149.138;2022-08-04T02:19:39;1.58;;;0.80;;
39930;SDS011;26635;-35.248;149.138;2022-08-04T02:22:57;1.45;;;0.52;;
39930;SDS011;26635;-35.248;149.138;2022-08-04T02:25:31;2.10;;;0.50;;
39930;SDS011;26635;-35.248;149.138;2022-08-04T02:28:21;0.50;;;0.38;;
39930;SDS011;26635;-35.248;149.138;2022-08-04T02:31:48;0.77;;;0.40;;
39930;SDS011;26635;-35.248;149.138;2022-08-04T02:34:08;1.25;;;0.30;;
39930;SDS011;26635;-35.248;149.138;2022-08-04T02:36:47;0.93;;;0.43;;
39930;SDS011;26635;-35.248;149.138;2022-08-04T02:39:21;1.33;;;0.32;;
39930;SDS011;26635;-35.248;149.138;2022-08-04T02:41:53;2.10;;;0.70;;
39930;SDS011;26635;-35.248;149.138;2022-08-04T02:44:27;0.80;;;0.40;;
39930;SDS011;26635;-35.248;149.138;2022-08-04T02:47:00;0.93;;;0.30;;
39930;SDS011;26635;-35.248;149.138;2022-08-04T02:49:31;1.23;;;0.60;;
39930;SDS011;26635;-35.248;149.138;2022-08-04T02:54:43;0.75;;;0.50;;
39930;SDS011;26635;-35.248;149.138;2022-08-04T02:57:22;0.65;;;0.50;;
39930;SDS011;26635;-35.248;149.138;2022-08-04T03:12:03;1.30;;;0.50;;
39930;SDS011;26635;-35.248;149.138;2022-08-04T03:15:19;2.38;;;0.50;;
39930;SDS011;26635;-35.248;149.138;2022-08-04T03:21:12;2.30;;;0.77;;
39930;SDS011;26635;-35.248;149.138;2022-08-04T03:36:16;1.55;;;0.50;;
39930;SDS011;26635;-35.248;149.138;2022-08-04T04:02:43;1.02;;;0.10;;
39930;SDS011;26635;-35.248;149.138;2022-08-04T04:08:46;0.70;;;0.20;;
39930;SDS011;26635;-35.248;149.138;2022-08-04T04:27:19;0.45;;;0.20;;
39930;SDS011;26635;-35.248;149.138;2022-08-04T04:36:56;0.15;;;0.05;;
39930;SDS011;26635;-35.248;149.138;2022-08-04T04:51:35;0.70;;;0.30;;
39930;SDS011;26635;-35.248;149.138;2022-08-04T04:54:20;0.63;;;0.10;;
39930;SDS011;26635;-35.248;149.138;2022-08-04T04:57:04;0.90;;;0.20;;
39930;SDS011;26635;-35.248;149.138;2022-08-04T05:00:15;1.30;;;0.10;;
39930;SDS011;26635;-35.248;149.138;2022-08-04T05:06:17;0.45;;;0.10;;
39930;SDS011;26635;-35.248;149.138;2022-08-04T05:14:13;0.65;;;0.20;;
39930;SDS011;26635;-35.248;149.138;2022-08-04T05:17:16;2.97;;;0.70;;
39930;SDS011;26635;-35.248;149.138;2022-08-04T05:25:34;2.92;;;1.50;;
39930;SDS011;26635;-35.248;149.138;2022-08-04T05:28:32;2.65;;;1.50;;
39930;SDS011;26635;-35.248;149.138;2022-08-04T05:31:19;3.83;;;2.08;;
39930;SDS011;26635;-35.248;149.138;2022-08-04T05:33:59;5.10;;;2.67;;
39930;SDS011;26635;-35.248;149.138;2022-08-04T05:36:41;3.33;;;2.05;;
39930;SDS011;26635;-35.248;149.138;2022-08-04T05:39:19;5.18;;;2.15;;
39930;SDS011;26635;-35.248;149.138;2022-08-04T05:42:00;2.70;;;2.03;;
39930;SDS011;26635;-35.248;149.138;2022-08-04T05:44:33;1.33;;;0.82;;
39930;SDS011;26635;-35.248;149.138;2022-08-04T05:47:05;0.70;;;0.60;;
39930;SDS011;26635;-35.248;149.138;2022-08-04T05:49:36;2.17;;;0.80;;
39930;SDS011;26635;-35.248;149.138;2022-08-04T05:52:27;1.45;;;0.30;;
39930;SDS011;26635;-35.248;149.138;2022-08-04T05:55:00;1.13;;;0.47;;
39930;SDS011;26635;-35.248;149.138;2022-08-04T05:57:31;2.30;;;0.35;;
39930;SDS011;26635;-35.248;149.138;2022-08-04T06:00:03;0.80;;;0.30;;
39930;SDS011;26635;-35.248;149.138;2022-08-04T06:02:55;0.68;;;0.32;;
39930;SDS011;26635;-35.248;149.138;2022-08-04T06:05:27;3.30;;;0.77;;
39930;SDS011;26635;-35.248;149.138;2022-08-04T06:07:58;2.65;;;0.40;;
39930;SDS011;26635;-35.248;149.138;2022-08-04T06:10:38;0.40;;;0.25;;
39930;SDS011;26635;-35.248;149.138;2022-08-04T06:13:12;0.63;;;0.50;;
39930;SDS011;26635;-35.248;149.138;2022-08-04T06:16:05;1.08;;;0.40;;
39930;SDS011;26635;-35.248;149.138;2022-08-04T06:18:59;0.13;;;0.13;;
39930;SDS011;26635;-35.248;149.138;2022-08-04T06:21:54;0.93;;;0.20;;
39930;SDS011;26635;-35.248;149.138;2022-08-04T06:24:26;0.15;;;0.10;;
39930;SDS011;26635;-35.248;149.138;2022-08-04T06:26:58;1.17;;;0.20;;
39930;SDS011;26635;-35.248;149.138;2022-08-04T06:29:31;1.00;;;0.17;;
39930;SDS011;26635;-35.248;149.138;2022-08-04T06:32:17;0.93;;;0.30;;
39930;SDS011;26635;-35.248;149.138;2022-08-04T06:35:02;1.08;;;0.47;;
39930;SDS011;26635;-35.248;149.138;2022-08-04T06:37:35;2.53;;;0.22;;
39930;SDS011;26635;-35.248;149.138;2022-08-04T06:40:13;0.93;;;0.20;;
39930;SDS011;26635;-35.248;149.138;2022-08-04T06:43:02;0.35;;;0.10;;
39930;SDS011;26635;-35.248;149.138;2022-08-04T06:45:36;0.60;;;0.20;;
39930;SDS011;26635;-35.248;149.138;2022-08-04T06:48:11;1.27;;;0.40;;
39930;SDS011;26635;-35.248;149.138;2022-08-04T06:50:48;1.45;;;0.85;;
39930;SDS011;26635;-35.248;149.138;2022-08-04T06:53:40;0.95;;;0.40;;
39930;SDS011;26635;-35.248;149.138;2022-08-04T06:56:10;5.10;;;0.95;;
39930;SDS011;26635;-35.248;149.138;2022-08-04T06:58:42;2.25;;;0.60;;
39930;SDS011;26635;-35.248;149.138;2022-08-04T07:01:15;1.95;;;1.15;;
39930;SDS011;26635;-35.248;149.138;2022-08-04T07:03:48;5.35;;;0.40;;
39930;SDS011;26635;-35.248;149.138;2022-08-04T07:06:20;1.42;;;0.32;;
39930;SDS011;26635;-35.248;149.138;2022-08-04T07:08:53;1.05;;;0.55;;
39930;SDS011;26635;-35.248;149.138;2022-08-04T07:11:43;2.83;;;0.63;;
39930;SDS011;26635;-35.248;149.138;2022-08-04T07:14:28;1.75;;;0.80;;
39930;SDS011;26635;-35.248;149.138;2022-08-04T07:17:04;2.22;;;0.68;;
39930;SDS011;26635;-35.248;149.138;2022-08-04T07:19:43;2.65;;;0.68;;
39930;SDS011;26635;-35.248;149.138;2022-08-04T07:22:14;1.15;;;0.40;;
39930;SDS011;26635;-35.248;149.138;2022-08-04T07:24:57;1.50;;;0.40;;
39930;SDS011;26635;-35.248;149.138;2022-08-04T07:27:33;1.08;;;0.40;;
39930;SDS011;26635;-35.248;149.138;2022-08-04T07:30:15;3.05;;;0.60;;
39930;SDS011;26635;-35.248;149.138;2022-08-04T07:32:50;1.45;;;0.57;;
39930;SDS011;26635;-35.248;149.138;2022-08-04T07:35:22;0.55;;;0.20;;
39930;SDS011;26635;-35.248;149.138;2022-08-04T07:41:22;1.83;;;0.43;;
39930;SDS011;26635;-35.248;149.138;2022-08-04T07:47:22;0.73;;;0.30;;
39930;SDS011;26635;-35.248;149.138;2022-08-04T07:52:44;0.88;;;0.60;;
39930;SDS011;26635;-35.248;149.138;2022-08-04T08:01:30;1.98;;;0.65;;
39930;SDS011;26635;-35.248;149.138;2022-08-04T08:04:06;2.00;;;0.60;;
39930;SDS011;26635;-35.248;149.138;2022-08-04T08:06:40;1.17;;;0.50;;
39930;SDS011;26635;-35.248;149.138;2022-08-04T08:12:00;4.22;;;2.33;;
39930;SDS011;26635;-35.248;149.138;2022-08-04T08:14:53;4.82;;;2.42;;
39930;SDS011;26635;-35.248;149.138;2022-08-04T08:17:32;7.40;;;2.97;;
39930;SDS011;26635;-35.248;149.138;2022-08-04T08:20:24;3.90;;;2.10;;
39930;SDS011;26635;-35.248;149.138;2022-08-04T08:22:57;4.13;;;2.20;;
39930;SDS011;26635;-35.248;149.138;2022-08-04T08:25:30;3.13;;;1.92;;
39930;SDS011;26635;-35.248;149.138;2022-08-04T08:28:02;3.17;;;2.05;;
39930;SDS011;26635;-35.248;149.138;2022-08-04T08:30:34;3.00;;;1.65;;
39930;SDS011;26635;-35.248;149.138;2022-08-04T08:33:08;2.00;;;1.02;;
39930;SDS011;26635;-35.248;149.138;2022-08-04T08:47:37;2.38;;;1.20;;
39930;SDS011;26635;-35.248;149.138;2022-08-04T08:50:53;2.00;;;1.00;;
39930;SDS011;26635;-35.248;149.138;2022-08-04T09:00:35;2.58;;;1.20;;
39930;SDS011;26635;-35.248;149.138;2022-08-04T09:08:59;2.00;;;1.40;;
39930;SDS011;26635;-35.248;149.138;2022-08-04T09:11:49;2.05;;;1.42;;
39930;SDS011;26635;-35.248;149.138;2022-08-04T09:14:40;3.40;;;1.90;;
39930;SDS011;26635;-35.248;149.138;2022-08-04T09:17:27;4.40;;;2.78;;
39930;SDS011;26635;-35.248;149.138;2022-08-04T09:20:27;5.20;;;4.70;;
39930;SDS011;26635;-35.248;149.138;2022-08-04T09:25:56;4.15;;;2.75;;
39930;SDS011;26635;-35.248;149.138;2022-08-04T09:28:34;2.80;;;1.70;;
39930;SDS011;26635;-35.248;149.138;2022-08-04T09:31:22;5.40;;;4.30;;
39930;SDS011;26635;-35.248;149.138;2022-08-04T09:37:43;3.95;;;1.63;;
39930;SDS011;26635;-35.248;149.138;2022-08-04T09:46:27;3.00;;;1.63;;
39930;SDS011;26635;-35.248;149.138;2022-08-04T09:49:26;1.73;;;0.80;;
39930;SDS011;26635;-35.248;149.138;2022-08-04T09:55:19;1.88;;;0.50;;
39930;SDS011;26635;-35.248;149.138;2022-08-04T10:01:02;1.63;;;0.95;;
39930;SDS011;26635;-35.248;149.138;2022-08-04T10:03:52;1.80;;;0.50;;
39930;SDS011;26635;-35.248;149.138;2022-08-04T10:26:28;1.35;;;0.52;;
39930;SDS011;26635;-35.248;149.138;2022-08-04T10:29:27;1.00;;;0.30;;
39930;SDS011;26635;-35.248;149.138;2022-08-04T10:35:07;0.73;;;0.30;;
39930;SDS011;26635;-35.248;149.138;2022-08-04T10:40:39;0.47;;;0.20;;
39930;SDS011;26635;-35.248;149.138;2022-08-04T10:43:18;0.10;;;0.00;;
39930;SDS011;26635;-35.248;149.138;2022-08-04T10:48:52;0.80;;;0.20;;
39930;SDS011;26635;-35.248;149.138;2022-08-04T10:54:46;1.98;;;0.80;;
39930;SDS011;26635;-35.248;149.138;2022-08-04T10:57:20;2.80;;;1.05;;
39930;SDS011;26635;-35.248;149.138;2022-08-04T11:00:04;0.88;;;0.40;;
39930;SDS011;26635;-35.248;149.138;2022-08-04T11:05:40;2.30;;;1.10;;
39930;SDS011;26635;-35.248;149.138;2022-08-04T11:11:14;1.92;;;0.82;;
39930;SDS011;26635;-35.248;149.138;2022-08-04T11:14:28;6.43;;;2.83;;
39930;SDS011;26635;-35.248;149.138;2022-08-04T11:17:10;4.18;;;1.63;;
39930;SDS011;26635;-35.248;149.138;2022-08-04T11:23:05;1.40;;;0.75;;
39930;SDS011;26635;-35.248;149.138;2022-08-04T11:26:01;1.38;;;0.60;;
39930;SDS011;26635;-35.248;149.138;2022-08-04T11:28:57;1.35;;;0.50;;
39930;SDS011;26635;-35.248;149.138;2022-08-04T11:42:38;3.38;;;1.50;;
39930;SDS011;26635;-35.248;149.138;2022-08-04T11:45:30;1.27;;;0.70;;
39930;SDS011;26635;-35.248;149.138;2022-08-04T11:48:16;4.85;;;0.85;;
39930;SDS011;26635;-35.248;149.138;2022-08-04T11:50:53;1.25;;;0.70;;
39930;SDS011;26635;-35.248;149.138;2022-08-04T11:53:26;1.38;;;0.75;;
39930;SDS011;26635;-35.248;149.138;2022-08-04T11:56:03;0.88;;;0.68;;
39930;SDS011;26635;-35.248;149.138;2022-08-04T11:58:39;0.80;;;0.60;;
39930;SDS011;26635;-35.248;149.138;2022-08-04T12:06:55;4.03;;;0.88;;
39930;SDS011;26635;-35.248;149.138;2022-08-04T12:10:00;3.10;;;0.90;;
39930;SDS011;26635;-35.248;149.138;2022-08-04T12:13:09;1.75;;;0.60;;
39930;SDS011;26635;-35.248;149.138;2022-08-04T12:26:52;2.95;;;0.55;;
39930;SDS011;26635;-35.248;149.138;2022-08-04T12:29:27;1.65;;;0.60;;
39930;SDS011;26635;-35.248;149.138;2022-08-04T12:45:56;3.28;;;1.17;;
39930;SDS011;26635;-35.248;149.138;2022-08-04T12:48:31;2.17;;;1.20;;
39930;SDS011;26635;-35.248;149.138;2022-08-04T12:51:07;2.13;;;0.90;;
39930;SDS011;26635;-35.248;149.138;2022-08-04T12:53:59;2.20;;;0.70;;
39930;SDS011;26635;-35.248;149.138;2022-08-04T12:56:32;2.50;;;0.90;;
39930;SDS011;26635;-35.248;149.138;2022-08-04T12:59:09;1.95;;;1.00;;
39930;SDS011;26635;-35.248;149.138;2022-08-04T13:01:46;2.05;;;0.88;;
39930;SDS011;26635;-35.248;149.138;2022-08-04T13:04:37;2.60;;;1.58;;
39930;SDS011;26635;-35.248;149.138;2022-08-04T13:07:22;2.22;;;1.77;;
39930;SDS011;26635;-35.248;149.138;2022-08-04T13:09:55;2.67;;;1.85;;
39930;SDS011;26635;-35.248;149.138;2022-08-04T13:12:29;3.97;;;2.00;;
39930;SDS011;26635;-35.248;149.138;2022-08-04T13:15:11;4.03;;;2.25;;
39930;SDS011;26635;-35.248;149.138;2022-08-04T13:20:32;3.17;;;2.72;;
39930;SDS011;26635;-35.248;149.138;2022-08-04T13:25:39;2.40;;;1.15;;
39930;SDS011;26635;-35.248;149.138;2022-08-04T13:28:33;2.50;;;1.02;;
39930;SDS011;26635;-35.248;149.138;2022-08-04T13:31:16;1.85;;;0.90;;
39930;SDS011;26635;-35.248;149.138;2022-08-04T13:33:50;1.65;;;0.90;;
39930;SDS011;26635;-35.248;149.138;2022-08-04T13:36:25;4.35;;;1.25;;
39930;SDS011;26635;-35.248;149.138;2022-08-04T13:38:59;2.05;;;0.90;;
39930;SDS011;26635;-35.248;149.138;2022-08-04T13:41:37;3.33;;;0.80;;
39930;SDS011;26635;-35.248;149.138;2022-08-04T13:44:27;2.33;;;0.70;;
39930;SDS011;26635;-35.248;149.138;2022-08-04T13:47:13;2.53;;;0.70;;
39930;SDS011;26635;-35.248;149.138;2022-08-04T13:52:38;2.97;;;1.08;;
39930;SDS011;26635;-35.248;149.138;2022-08-04T13:55:22;3.25;;;1.60;;
39930;SDS011;26635;-35.248;149.138;2022-08-04T13:57:57;2.92;;;1.75;;
39930;SDS011;26635;-35.248;149.138;2022-08-04T14:00:39;4.43;;;1.47;;
39930;SDS011;26635;-35.248;149.138;2022-08-04T14:03:13;3.08;;;1.10;;
39930;SDS011;26635;-35.248;149.138;2022-08-04T14:06:23;3.45;;;1.13;;
39930;SDS011;26635;-35.248;149.138;2022-08-04T14:11:36;3.20;;;1.55;;
39930;SDS011;26635;-35.248;149.138;2022-08-04T14:14:29;2.28;;;1.23;;
39930;SDS011;26635;-35.248;149.138;2022-08-04T14:25:04;2.75;;;1.80;;
39930;SDS011;26635;-35.248;149.138;2022-08-04T14:28:03;2.17;;;1.17;;
39930;SDS011;26635;-35.248;149.138;2022-08-04T14:30:37;1.85;;;1.20;;
39930;SDS011;26635;-35.248;149.138;2022-08-04T14:33:09;1.77;;;0.90;;
39930;SDS011;26635;-35.248;149.138;2022-08-04T14:36:00;2.25;;;0.95;;
39930;SDS011;26635;-35.248;149.138;2022-08-04T14:38:44;4.57;;;1.92;;
39930;SDS011;26635;-35.248;149.138;2022-08-04T14:41:28;2.88;;;0.98;;
39930;SDS011;26635;-35.248;149.138;2022-08-04T14:44:13;3.53;;;2.10;;
39930;SDS011;26635;-35.248;149.138;2022-08-04T14:46:52;4.45;;;2.10;;
39930;SDS011;26635;-35.248;149.138;2022-08-04T14:49:23;3.80;;;2.08;;
39930;SDS011;26635;-35.248;149.138;2022-08-04T14:51:58;1.88;;;1.35;;
39930;SDS011;26635;-35.248;149.138;2022-08-04T14:54:31;1.88;;;1.08;;
39930;SDS011;26635;-35.248;149.138;2022-08-04T14:57:04;3.38;;;2.05;;
39930;SDS011;26635;-35.248;149.138;2022-08-04T14:59:40;2.42;;;1.33;;
39930;SDS011;26635;-35.248;149.138;2022-08-04T15:02:27;3.53;;;1.73;;
39930;SDS011;26635;-35.248;149.138;2022-08-04T15:04:58;2.95;;;1.20;;
39930;SDS011;26635;-35.248;149.138;2022-08-04T15:07:50;3.28;;;1.10;;
39930;SDS011;26635;-35.248;149.138;2022-08-04T15:10:22;3.22;;;0.93;;
39930;SDS011;26635;-35.248;149.138;2022-08-04T15:12:54;2.17;;;1.27;;
39930;SDS011;26635;-35.248;149.138;2022-08-04T15:15:26;2.95;;;1.40;;
39930;SDS011;26635;-35.248;149.138;2022-08-04T15:18:03;2.40;;;1.50;;
39930;SDS011;26635;-35.248;149.138;2022-08-04T15:20:37;3.20;;;2.10;;
39930;SDS011;26635;-35.248;149.138;2022-08-04T15:23:09;6.18;;;2.75;;
39930;SDS011;26635;-35.248;149.138;2022-08-04T15:25:47;2.92;;;1.85;;
39930;SDS011;26635;-35.248;149.138;2022-08-04T15:28:22;3.97;;;3.30;;
39930;SDS011;26635;-35.248;149.138;2022-08-04T15:30:55;4.50;;;3.08;;
39930;SDS011;26635;-35.248;149.138;2022-08-04T15:33:29;5.30;;;2.65;;
39930;SDS011;26635;-35.248;149.138;2022-08-04T15:36:26;2.83;;;1.90;;
39930;SDS011;26635;-35.248;149.138;2022-08-04T15:47:24;6.53;;;1.95;;
39930;SDS011;26635;-35.248;149.138;2022-08-04T15:50:04;5.70;;;1.92;;
39930;SDS011;26635;-35.248;149.138;2022-08-04T15:55:42;3.47;;;1.20;;
39930;SDS011;26635;-35.248;149.138;2022-08-04T15:58:14;2.25;;;1.27;;
39930;SDS011;26635;-35.248;149.138;2022-08-04T16:08:58;2.58;;;1.20;;
39930;SDS011;26635;-35.248;149.138;2022-08-04T16:14:08;2.75;;;1.40;;
39930;SDS011;26635;-35.248;149.138;2022-08-04T16:19:25;2.50;;;1.40;;
39930;SDS011;26635;-35.248;149.138;2022-08-04T16:22:39;2.92;;;1.65;;
39930;SDS011;26635;-35.248;149.138;2022-08-04T16:25:10;4.50;;;1.95;;
39930;SDS011;26635;-35.248;149.138;2022-08-04T16:27:42;4.25;;;2.15;;
39930;SDS011;26635;-35.248;149.138;2022-08-04T16:30:14;4.93;;;2.25;;
39930;SDS011;26635;-35.248;149.138;2022-08-04T16:32:47;3.22;;;2.28;;
39930;SDS011;26635;-35.248;149.138;2022-08-04T16:35:26;3.13;;;2.10;;
39930;SDS011;26635;-35.248;149.138;2022-08-04T16:38:13;3.83;;;1.90;;
39930;SDS011;26635;-35.248;149.138;2022-08-04T16:43:17;2.80;;;1.80;;
39930;SDS011;26635;-35.248;149.138;2022-08-04T16:45:56;4.28;;;1.70;;
39930;SDS011;26635;-35.248;149.138;2022-08-04T16:51:03;3.50;;;2.00;;
39930;SDS011;26635;-35.248;149.138;2022-08-04T16:53:36;5.15;;;2.55;;
39930;SDS011;26635;-35.248;149.138;2022-08-04T16:56:31;4.65;;;2.30;;
39930;SDS011;26635;-35.248;149.138;2022-08-04T16:59:06;2.83;;;2.00;;
39930;SDS011;26635;-35.248;149.138;2022-08-04T17:01:44;3.00;;;2.30;;
39930;SDS011;26635;-35.248;149.138;2022-08-04T17:04:29;5.53;;;3.47;;
39930;SDS011;26635;-35.248;149.138;2022-08-04T17:07:04;5.53;;;2.55;;
39930;SDS011;26635;-35.248;149.138;2022-08-04T17:09:37;5.88;;;2.53;;
39930;SDS011;26635;-35.248;149.138;2022-08-04T17:12:26;5.07;;;2.58;;
39930;SDS011;26635;-35.248;149.138;2022-08-04T17:14:57;3.95;;;2.60;;
39930;SDS011;26635;-35.248;149.138;2022-08-04T17:17:29;3.15;;;1.85;;
39930;SDS011;26635;-35.248;149.138;2022-08-04T17:20:29;2.35;;;1.27;;
39930;SDS011;26635;-35.248;149.138;2022-08-04T17:26:36;2.08;;;1.00;;
39930;SDS011;26635;-35.248;149.138;2022-08-04T17:29:17;2.17;;;1.27;;
39930;SDS011;26635;-35.248;149.138;2022-08-04T17:32:12;2.90;;;1.40;;
39930;SDS011;26635;-35.248;149.138;2022-08-04T17:34:49;3.28;;;1.02;;
39930;SDS011;26635;-35.248;149.138;2022-08-04T17:37:25;2.75;;;0.93;;
39930;SDS011;26635;-35.248;149.138;2022-08-04T17:40:14;2.60;;;1.13;;
39930;SDS011;26635;-35.248;149.138;2022-08-04T17:43:02;3.53;;;0.95;;
39930;SDS011;26635;-35.248;149.138;2022-08-04T17:46:16;3.88;;;1.20;;
39930;SDS011;26635;-35.248;149.138;2022-08-04T17:49:41;2.38;;;0.77;;
39930;SDS011;26635;-35.248;149.138;2022-08-04T17:52:26;1.85;;;1.00;;
39930;SDS011;26635;-35.248;149.138;2022-08-04T17:55:22;2.38;;;0.77;;
39930;SDS011;26635;-35.248;149.138;2022-08-04T17:58:38;0.90;;;0.60;;
39930;SDS011;26635;-35.248;149.138;2022-08-04T18:01:22;1.05;;;0.52;;
39930;SDS011;26635;-35.248;149.138;2022-08-04T18:03:54;1.13;;;0.50;;
39930;SDS011;26635;-35.248;149.138;2022-08-04T18:07:09;1.45;;;0.68;;
39930;SDS011;26635;-35.248;149.138;2022-08-04T18:10:47;1.10;;;0.65;;
39930;SDS011;26635;-35.248;149.138;2022-08-04T18:13:38;1.50;;;0.57;;
39930;SDS011;26635;-35.248;149.138;2022-08-04T18:16:23;0.80;;;0.60;;
39930;SDS011;26635;-35.248;149.138;2022-08-04T18:19:06;1.92;;;0.77;;
39930;SDS011;26635;-35.248;149.138;2022-08-04T18:21:50;1.52;;;0.70;;
39930;SDS011;26635;-35.248;149.138;2022-08-04T18:24:34;2.50;;;0.60;;
39930;SDS011;26635;-35.248;149.138;2022-08-04T18:27:23;2.05;;;0.60;;
39930;SDS011;26635;-35.248;149.138;2022-08-04T18:30:24;0.90;;;0.80;;
39930;SDS011;26635;-35.248;149.138;2022-08-04T18:33:20;1.17;;;0.73;;
39930;SDS011;26635;-35.248;149.138;2022-08-04T18:36:08;2.78;;;0.60;;
39930;SDS011;26635;-35.248;149.138;2022-08-04T18:39:00;2.47;;;0.80;;
39930;SDS011;26635;-35.248;149.138;2022-08-04T18:41:42;2.05;;;0.60;;
39930;SDS011;26635;-35.248;149.138;2022-08-04T18:44:32;0.65;;;0.50;;
39930;SDS011;26635;-35.248;149.138;2022-08-04T18:47:24;2.22;;;0.60;;
39930;SDS011;26635;-35.248;149.138;2022-08-04T18:50:19;0.77;;;0.35;;
39930;SDS011;26635;-35.248;149.138;2022-08-04T18:53:10;2.10;;;0.73;;
39930;SDS011;26635;-35.248;149.138;2022-08-04T18:55:48;1.02;;;0.40;;
39930;SDS011;26635;-35.248;149.138;2022-08-04T18:58:24;2.05;;;0.45;;
39930;SDS011;26635;-35.248;149.138;2022-08-04T19:01:07;2.13;;;0.70;;
39930;SDS011;26635;-35.248;149.138;2022-08-04T19:03:40;2.67;;;0.85;;
39930;SDS011;26635;-35.248;149.138;2022-08-04T19:06:21;1.23;;;0.82;;
39930;SDS011;26635;-35.248;149.138;2022-08-04T19:08:56;2.92;;;0.50;;
39930;SDS011;26635;-35.248;149.138;2022-08-04T19:11:27;3.15;;;0.65;;
39930;SDS011;26635;-35.248;149.138;2022-08-04T19:14:28;3.22;;;0.70;;
39930;SDS011;26635;-35.248;149.138;2022-08-04T19:17:11;1.02;;;0.70;;
39930;SDS011;26635;-35.248;149.138;2022-08-04T19:20:04;2.75;;;0.50;;
39930;SDS011;26635;-35.248;149.138;2022-08-04T19:22:54;2.58;;;0.57;;
39930;SDS011;26635;-35.248;149.138;2022-08-04T19:25:48;1.02;;;0.40;;
39930;SDS011;26635;-35.248;149.138;2022-08-04T19:28:32;1.77;;;0.52;;
39930;SDS011;26635;-35.248;149.138;2022-08-04T19:31:23;1.90;;;0.63;;
39930;SDS011;26635;-35.248;149.138;2022-08-04T19:34:07;1.50;;;0.98;;
39930;SDS011;26635;-35.248;149.138;2022-08-04T19:37:02;2.65;;;0.80;;
39930;SDS011;26635;-35.248;149.138;2022-08-04T19:40:12;1.73;;;0.50;;
39930;SDS011;26635;-35.248;149.138;2022-08-04T19:43:06;1.75;;;0.77;;
39930;SDS011;26635;-35.248;149.138;2022-08-04T19:45:41;2.78;;;0.50;;
39930;SDS011;26635;-35.248;149.138;2022-08-04T19:48:13;1.27;;;0.52;;
39930;SDS011;26635;-35.248;149.138;2022-08-04T19:50:55;3.03;;;0.65;;
39930;SDS011;26635;-35.248;149.138;2022-08-04T19:53:37;1.63;;;0.50;;
39930;SDS011;26635;-35.248;149.138;2022-08-04T19:56:16;1.50;;;0.77;;
39930;SDS011;26635;-35.248;149.138;2022-08-04T19:58:51;1.60;;;0.50;;
39930;SDS011;26635;-35.248;149.138;2022-08-04T20:01:34;1.48;;;0.50;;
39930;SDS011;26635;-35.248;149.138;2022-08-04T20:04:13;2.83;;;0.68;;
39930;SDS011;26635;-35.248;149.138;2022-08-04T20:06:44;1.73;;;0.80;;
39930;SDS011;26635;-35.248;149.138;2022-08-04T20:09:15;1.92;;;0.80;;
39930;SDS011;26635;-35.248;149.138;2022-08-04T20:11:53;0.77;;;0.60;;
39930;SDS011;26635;-35.248;149.138;2022-08-04T20:14:24;1.80;;;0.82;;
39930;SDS011;26635;-35.248;149.138;2022-08-04T20:16:59;2.53;;;0.90;;
39930;SDS011;26635;-35.248;149.138;2022-08-04T20:19:37;1.17;;;0.50;;
39930;SDS011;26635;-35.248;149.138;2022-08-04T20:22:17;2.20;;;0.68;;
39930;SDS011;26635;-35.248;149.138;2022-08-04T20:25:09;2.00;;;0.88;;
39930;SDS011;26635;-35.248;149.138;2022-08-04T20:28:00;3.38;;;0.93;;
39930;SDS011;26635;-35.248;149.138;2022-08-04T20:30:30;2.55;;;0.85;;
39930;SDS011;26635;-35.248;149.138;2022-08-04T20:33:01;2.55;;;1.45;;
39930;SDS011;26635;-35.248;149.138;2022-08-04T20:35:32;1.52;;;0.90;;
39930;SDS011;26635;-35.248;149.138;2022-08-04T20:38:26;2.78;;;1.05;;
39930;SDS011;26635;-35.248;149.138;2022-08-04T20:41:00;1.70;;;1.00;;
39930;SDS011;26635;-35.248;149.138;2022-08-04T20:43:31;2.05;;;0.80;;
39930;SDS011;26635;-35.248;149.138;2022-08-04T20:46:04;2.05;;;1.02;;
39930;SDS011;26635;-35.248;149.138;2022-08-04T20:48:51;1.85;;;0.90;;
39930;SDS011;26635;-35.248;149.138;2022-08-04T20:51:21;3.47;;;1.00;;
39930;SDS011;26635;-35.248;149.138;2022-08-04T20:53:59;1.20;;;0.70;;
39930;SDS011;26635;-35.248;149.138;2022-08-04T20:56:43;1.98;;;1.08;;
39930;SDS011;26635;-35.248;149.138;2022-08-04T20:59:17;1.23;;;0.98;;
39930;SDS011;26635;-35.248;149.138;2022-08-04T21:01:48;4.43;;;0.90;;
39930;SDS011;26635;-35.248;149.138;2022-08-04T21:04:20;2.78;;;1.00;;
39930;SDS011;26635;-35.248;149.138;2022-08-04T21:07:01;3.67;;;1.42;;
39930;SDS011;26635;-35.248;149.138;2022-08-04T21:09:36;1.95;;;1.08;;
39930;SDS011;26635;-35.248;149.138;2022-08-04T21:12:17;2.67;;;1.35;;
39930;SDS011;26635;-35.248;149.138;2022-08-04T21:15:00;2.75;;;1.45;;
39930;SDS011;26635;-35.248;149.138;2022-08-04T21:17:42;3.10;;;1.50;;